Gulf Crest, Alabama
Current Conditions -  °F | °C
As of 9:56 PM on Thursday 20 Nov 2014 (Local Time) from KMOB Reporting Station
Clear Clear  
Wind Chill: 46°   Ceiling: Unl
Heat Index: 46°   Visibility: 10mi
Dew Point: 43°   Wind: 3mph
Humidity: 89%   Direction: 120°ESE
Pressure: 30.26"   Gusts: NA
Location:  30.9846°N, 88.1229°W
Report Text: KMOB 210356Z 12003KT 10SM CLR 08/06 A3026 RMK AO2 SLP245 T00780061
Loading
Personal Weather Stations






























Interactive Weather Map New forecast layout! Learn more

10-Day Weather Forecast

Advertisements
Track Severe Weather on mobile